Aérodrome :
LOGIN :

S'inscrire | Disclaimer

   EN    FR    IT 

 










Légende :    VFR   VFR Marginal   IFR   IFR Intensif   IFR Très Intensif
Visi : 
Plafond : 
>= 8 km
>= 3000ft
5 à 8 km
1000 à 3000 ft
1500m à 5 km
500 à 1000 ft
800 à 1500m
200 à 500 ft
< 800m
< 200 ft
Symboles :   Orages  Brouillard  Fortes neiges  Fortes précipitations  Vent > 20 kt
SIGMETs :   Divers  Orages  Givrage  Turbulence  Onde Orograph.  Cendres Volcan.






- Altitude de l'aérodrome : 826 ft
- Code IATA : CWC


UKLN - Chernivtsi International

DERNIER METAR :
  • 221102Z 09003MPS 050V120 2800 BR NSC 13/13 Q1024 NOSIG

METARs EXPIRÉS :
  • 221040Z 10003MPS 050V120 2000 BR NSC 13/13 Q1024 NOSIG
  • 221030Z 09003MPS 1200 0350SE R15/P2000N PRFG NSC 12/12 Q1024 NOSIG
  • 221000Z 09002MPS 0750 0350SE R15/P2000N PRFG NSC 12/12 Q1025 NOSIG

TAF TAF UKLN
Valide du 22 à 11h jusqu'au 22 à 18h UTC


221015Z 2211/2218 09004MPS 9999 SCT040
TEMPO 2211/2216 2100 BR
TEMPO 2216/2218 1200 BR SCT020



MET'MAP, la Météo Aéronautique d'un coup d'oeil ! - Copyright ORBIFLY Décembre 2007 - Disclaimer

ORBIFLY MET'MAP TEAM :

Programmation & Développement : Alexandra Zaïnal
Conception & Développement : Baudouin d'Aumeries
Co-Programmation & Développement : Marc-Olivier Méhu
Soutien technique & logistique : Manuel Goepfert

Contact : metmap@orbifly.com




SOURCES & CREDITS :

   NOAA